Interlaken, Suiza

10:06 PM CET en Enero 31, 2015 (GMT +0100)
Belp | Change Station
CLOSE
Current Station
Aeropuerto
Location: Bern-Belp,
Altura: 1673 ft
Estaciones meteorológicas cercanas

Alt 1673 ft 46.91 °N, 7.50 °E | Updated 16 minutes ago

Snow
Nieve
32 ° F
Sensación térmica 29 ° F
N
4
Viento Variable Viento desde SSE

Hoy
Alta -- | Baja -- ° F
--% Posibilidad de precipitaciones
Ayer
Alta -- | Baja -- ° F
Precip. -- pul
7:54 AM 5:30 PM
Gibosa creciente, 91% visible
Presión 29.18 pul
Visibilidad 1.0 Millas
Nubes Baja 200 ft
Muy nublado 1200 ft
Muy nublado 1700 ft
Vientos helados 29 ° F
Punto de rocío 30 ° F
Humedad 93%
Precipitaciones 0.00 pul
Espesor de la nieve No disponible.
UV 0 de una escala de 12
Polen No disponible.
Calidad del aire No disponible.
Flu Activity No disponible.
METAR LSZB 312050Z AUTO 16003KT 1600 SN FEW002 BKN012 BKN017 M00/M01 Q0988 RESHSN

More Conditions Fewer Conditions

Presión 29.18 pul
Visibilidad 1.0 Millas
Nubes Baja 200 ft
Muy nublado 1200 ft
Muy nublado 1700 ft
Vientos helados 29 ° F
Punto de rocío 30 ° F
Humedad 93%
Precipitaciones 0.00 pul
Espesor de la nieve No disponible.
UV 0 de una escala de 12
Polen No disponible.
Calidad del aire No disponible.
Flu Activity No disponible.
METAR LSZB 312050Z AUTO 16003KT 1600 SN FEW002 BKN012 BKN017 M00/M01 Q0988 RESHSN

More Conditions Fewer Conditions

10-Day Weather Forecast

Almanac

Astronomía

Jan. 31, 2015 Salida Puesta
Hora real
Crepúsculo civil
Crepúsculo náutico
Crepúsculo astronómico
Luna
Horas de luz
Horas de luz
Tomorrow will be .
, % of the Moon is Illuminated

Extremos de hoy

Máximos del país Bajas del país

Community

WunderPhotos

Upload Photos

1,792,204 ¡fotos cargadas!

WunderBlogs® & News

Nearby

Calidad del aire

  Calidad del aire Índice AQ Contaminante
Not available.

Grosos de nieve

Estación Profundido Altura

Actividad de terremotos

Ciudad Distance Mag. Tiempo y dato
Magnitud mínima muestra es 2,5.

Temperaturas de aguas costeras

Lugar Temperatura

Estaciones meteorológicas cercanas